createdAt,value
2023-04-07T00:01:56.606Z,2.27
2023-04-07T00:04:24.451Z,1.90
2023-04-07T00:06:52.127Z,1.80
2023-04-07T00:09:19.594Z,1.60
2023-04-07T00:11:48.862Z,2.00
2023-04-07T00:14:16.564Z,1.67
2023-04-07T00:16:44.037Z,1.70
2023-04-07T00:19:11.610Z,1.60
2023-04-07T00:21:38.984Z,1.47
2023-04-07T00:24:06.608Z,1.60
2023-04-07T00:26:34.008Z,1.60
2023-04-07T00:29:01.428Z,1.90
2023-04-07T00:31:28.940Z,1.40
2023-04-07T00:33:57.944Z,2.17
2023-04-07T00:36:26.167Z,1.97
2023-04-07T00:38:53.761Z,1.33
2023-04-07T00:41:21.129Z,1.73
2023-04-07T00:43:48.616Z,1.60
2023-04-07T00:46:16.063Z,1.60
2023-04-07T00:48:43.475Z,2.20
2023-04-07T00:51:10.995Z,1.63
2023-04-07T00:53:38.435Z,2.03
2023-04-07T00:56:06.516Z,1.60
2023-04-07T00:58:33.967Z,1.53
2023-04-07T01:01:13.755Z,1.50
2023-04-07T01:03:46.938Z,1.50
2023-04-07T01:06:16.923Z,2.00
2023-04-07T01:08:47.121Z,1.80
2023-04-07T01:11:21.166Z,1.70
2023-04-07T01:13:52.512Z,1.40
2023-04-07T01:16:32.125Z,1.60
2023-04-07T01:19:05.563Z,1.53
2023-04-07T01:21:34.839Z,1.60
2023-04-07T01:24:10.040Z,1.63
2023-04-07T01:26:38.632Z,1.67
2023-04-07T01:29:24.639Z,1.70
2023-04-07T01:31:52.209Z,1.80
2023-04-07T01:34:20.002Z,1.50
2023-04-07T01:36:48.100Z,1.37
2023-04-07T01:39:16.199Z,1.67
2023-04-07T01:41:44.299Z,1.80
2023-04-07T01:44:12.262Z,1.83
2023-04-07T01:46:39.623Z,1.73
2023-04-07T01:49:07.805Z,1.67
2023-04-07T01:51:35.405Z,1.40
2023-04-07T01:54:03.202Z,1.77
2023-04-07T01:56:30.609Z,1.60
2023-04-07T01:58:58.044Z,1.57
2023-04-07T02:01:25.886Z,1.60
2023-04-07T02:03:53.642Z,1.30
2023-04-07T02:06:23.925Z,1.47
2023-04-07T02:08:54.814Z,1.73
2023-04-07T02:11:22.658Z,1.57
2023-04-07T02:13:52.687Z,1.70
2023-04-07T02:16:21.475Z,1.87
2023-04-07T02:18:49.571Z,1.70
2023-04-07T02:21:18.602Z,1.87
2023-04-07T02:23:46.044Z,1.57
2023-04-07T02:26:16.204Z,1.60
2023-04-07T02:28:43.647Z,1.50
2023-04-07T02:31:13.724Z,1.80
2023-04-07T02:33:41.249Z,1.60
2023-04-07T02:36:08.608Z,1.37
2023-04-07T02:38:36.128Z,1.70
2023-04-07T02:41:03.484Z,2.00
2023-04-07T02:43:31.133Z,1.57
2023-04-07T02:45:58.618Z,1.70
2023-04-07T02:48:26.045Z,1.50
2023-04-07T02:50:53.503Z,1.50
2023-04-07T02:53:21.044Z,1.67
2023-04-07T02:55:48.407Z,1.70
2023-04-07T02:58:18.863Z,1.87
2023-04-07T03:00:46.324Z,2.00
2023-04-07T03:03:14.003Z,1.60
2023-04-07T03:05:41.761Z,1.60
2023-04-07T03:08:10.517Z,1.70
2023-04-07T03:10:39.804Z,1.97
2023-04-07T03:13:08.608Z,1.70
2023-04-07T03:15:35.963Z,1.73
2023-04-07T03:18:03.492Z,1.83
2023-04-07T03:20:31.203Z,1.40
2023-04-07T03:22:58.565Z,1.53
2023-04-07T03:25:27.654Z,1.90
2023-04-07T03:27:55.081Z,1.60
2023-04-07T03:30:22.405Z,1.73
2023-04-07T03:32:49.782Z,1.40
2023-04-07T03:35:17.415Z,1.80
2023-04-07T03:37:44.806Z,1.87
2023-04-07T03:40:12.574Z,1.70
2023-04-07T03:42:40.123Z,2.37
2023-04-07T03:45:07.882Z,1.90
2023-04-07T03:47:35.708Z,1.60
2023-04-07T03:50:03.327Z,1.70
2023-04-07T03:52:30.648Z,1.73
2023-04-07T03:54:58.086Z,1.80
2023-04-07T03:57:25.563Z,1.70
2023-04-07T03:59:52.924Z,1.70
2023-04-07T04:02:20.853Z,1.73
2023-04-07T04:04:48.604Z,1.90
2023-04-07T04:07:16.332Z,1.40
2023-04-07T04:09:43.800Z,1.60
2023-04-07T04:12:11.529Z,1.80
2023-04-07T04:14:38.844Z,1.47
2023-04-07T04:17:06.324Z,1.50
2023-04-07T04:19:33.811Z,1.50
2023-04-07T04:22:01.450Z,1.77
2023-04-07T04:24:28.847Z,1.57
2023-04-07T04:26:56.966Z,1.50
2023-04-07T04:29:24.363Z,1.70
2023-04-07T04:31:51.773Z,1.50
2023-04-07T04:34:22.245Z,1.67
2023-04-07T04:36:49.828Z,1.97
2023-04-07T04:39:17.404Z,1.90
2023-04-07T04:41:45.567Z,1.80
2023-04-07T04:44:12.968Z,2.03
2023-04-07T04:46:40.432Z,1.80
2023-04-07T04:49:07.888Z,1.60
2023-04-07T04:51:35.370Z,1.83
2023-04-07T04:54:04.100Z,1.70
2023-04-07T04:56:31.531Z,2.20
2023-04-07T04:58:58.929Z,2.73
2023-04-07T05:01:26.384Z,2.30
2023-04-07T05:03:54.336Z,1.60
2023-04-07T05:06:22.347Z,1.70
2023-04-07T05:08:49.726Z,2.00
2023-04-07T05:11:17.433Z,1.83
2023-04-07T05:13:44.812Z,1.80
2023-04-07T05:16:12.349Z,1.97
2023-04-07T05:18:39.894Z,3.80
2023-04-07T05:21:07.578Z,2.43
2023-04-07T05:23:34.946Z,1.90
2023-04-07T05:26:02.260Z,2.10
2023-04-07T05:28:32.516Z,2.20
2023-04-07T05:31:01.619Z,1.90
2023-04-07T05:33:29.010Z,2.00
2023-04-07T05:35:56.351Z,1.77
2023-04-07T05:38:23.653Z,1.80
2023-04-07T05:40:51.130Z,2.03
2023-04-07T05:43:18.622Z,1.77
2023-04-07T05:45:46.399Z,1.90
2023-04-07T05:48:14.073Z,1.97
2023-04-07T05:50:41.890Z,1.83
2023-04-07T05:53:09.358Z,1.80
2023-04-07T05:55:37.027Z,2.10
2023-04-07T05:58:04.707Z,2.10
2023-04-07T06:00:32.094Z,2.00
2023-04-07T06:02:59.643Z,1.90
2023-04-07T06:05:27.447Z,2.27
2023-04-07T06:07:54.847Z,2.00
2023-04-07T06:10:22.442Z,2.27
2023-04-07T06:12:50.274Z,2.40
2023-04-07T06:15:17.760Z,2.07
2023-04-07T06:17:47.995Z,2.17
2023-04-07T06:20:15.862Z,2.17
2023-04-07T06:22:43.494Z,1.67
2023-04-07T06:25:11.080Z,1.40
2023-04-07T06:27:38.390Z,1.80
2023-04-07T06:30:06.186Z,1.90
2023-04-07T06:32:33.713Z,1.90
2023-04-07T06:35:01.128Z,1.90
2023-04-07T06:37:31.572Z,2.03
2023-04-07T06:39:59.071Z,2.00
2023-04-07T06:42:26.525Z,2.20
2023-04-07T06:44:54.251Z,1.77
2023-04-07T06:47:22.005Z,2.67
2023-04-07T06:49:49.411Z,2.37
2023-04-07T06:52:16.919Z,2.10
2023-04-07T06:54:44.822Z,2.53
2023-04-07T06:57:12.393Z,2.20
2023-04-07T06:59:39.909Z,3.40
2023-04-07T07:02:07.853Z,2.40
2023-04-07T07:04:36.246Z,2.10
2023-04-07T07:07:03.948Z,2.67
2023-04-07T07:09:31.666Z,3.13
2023-04-07T07:11:59.091Z,3.43
2023-04-07T07:14:26.490Z,2.80
2023-04-07T07:16:53.994Z,2.40
2023-04-07T07:19:21.366Z,2.53
2023-04-07T07:21:48.801Z,3.37
2023-04-07T07:24:19.166Z,3.10
2023-04-07T07:26:46.805Z,2.40
2023-04-07T07:29:14.167Z,2.30
2023-04-07T07:31:41.645Z,2.33
2023-04-07T07:34:09.086Z,2.40
2023-04-07T07:36:36.474Z,2.80
2023-04-07T07:39:03.984Z,2.63
2023-04-07T07:41:31.488Z,2.73
2023-04-07T07:43:58.813Z,2.33
2023-04-07T07:46:27.495Z,2.30
2023-04-07T07:48:55.165Z,2.30
2023-04-07T07:51:22.995Z,2.30
2023-04-07T07:53:50.482Z,2.30
2023-04-07T07:56:17.887Z,2.13
2023-04-07T07:58:45.361Z,2.20
2023-04-07T08:01:12.929Z,2.10
2023-04-07T08:03:40.821Z,2.30
2023-04-07T08:06:09.799Z,2.50
2023-04-07T08:08:37.358Z,2.73
2023-04-07T08:11:04.890Z,2.37
2023-04-07T08:13:32.439Z,2.57
2023-04-07T08:15:59.902Z,2.43
2023-04-07T08:18:27.421Z,2.53
2023-04-07T08:20:54.885Z,1.80
2023-04-07T08:23:22.376Z,2.37
2023-04-07T08:25:49.971Z,2.43
2023-04-07T08:28:17.303Z,2.50
2023-04-07T08:30:44.646Z,2.27
2023-04-07T08:33:12.116Z,3.00
2023-04-07T08:35:39.647Z,2.90
2023-04-07T08:38:08.655Z,3.10
2023-04-07T08:40:36.235Z,3.53
2023-04-07T08:43:06.862Z,3.10
2023-04-07T08:45:35.007Z,3.17
2023-04-07T08:48:05.697Z,2.83
2023-04-07T08:50:33.259Z,3.87
2023-04-07T08:53:01.852Z,3.57
2023-04-07T08:55:29.315Z,3.67
2023-04-07T08:57:57.162Z,3.10
2023-04-07T09:00:24.967Z,3.70
2023-04-07T09:02:52.582Z,3.30
2023-04-07T09:05:21.615Z,3.70
2023-04-07T09:07:49.141Z,3.90
2023-04-07T09:10:17.888Z,4.13
2023-04-07T09:12:45.580Z,3.70
2023-04-07T09:15:13.034Z,3.47
2023-04-07T09:17:40.835Z,3.90
2023-04-07T09:20:08.694Z,3.20
2023-04-07T09:22:40.227Z,4.13
2023-04-07T09:25:18.000Z,3.53
2023-04-07T09:27:58.832Z,3.47
2023-04-07T09:30:28.572Z,3.70
2023-04-07T09:32:56.500Z,3.53
2023-04-07T09:35:24.864Z,3.30
2023-04-07T09:38:11.336Z,3.50
2023-04-07T09:40:38.875Z,3.50
2023-04-07T09:43:07.198Z,3.53
2023-04-07T09:45:39.448Z,3.53
2023-04-07T09:48:19.426Z,3.30
2023-04-07T09:50:49.798Z,3.17
2023-04-07T09:53:19.208Z,3.70
2023-04-07T09:55:47.320Z,4.20
2023-04-07T09:58:14.933Z,3.63
2023-04-07T10:00:42.858Z,4.17
2023-04-07T10:03:10.830Z,3.90
2023-04-07T10:05:39.725Z,4.23
2023-04-07T10:08:07.520Z,3.60
2023-04-07T10:10:35.243Z,3.40
2023-04-07T10:13:06.349Z,3.60
2023-04-07T10:15:34.132Z,3.60
2023-04-07T10:18:01.993Z,3.53
2023-04-07T10:20:30.054Z,3.37
2023-04-07T10:23:03.032Z,3.20
2023-04-07T10:25:31.009Z,3.37
2023-04-07T10:28:04.773Z,3.93
2023-04-07T10:30:33.366Z,3.27
2023-04-07T10:33:01.459Z,3.43
2023-04-07T10:35:29.893Z,3.03
2023-04-07T10:38:14.157Z,2.70
2023-04-07T10:40:43.107Z,2.90
2023-04-07T10:43:12.184Z,3.10
2023-04-07T10:45:49.068Z,2.20
2023-04-07T10:48:17.441Z,2.30
2023-04-07T10:50:48.414Z,2.73
2023-04-07T10:53:16.715Z,2.20
2023-04-07T10:55:45.143Z,2.17
2023-04-07T10:58:20.528Z,2.43
2023-04-07T11:01:06.647Z,2.30
2023-04-07T11:03:53.007Z,1.70
2023-04-07T11:06:22.105Z,1.70
2023-04-07T11:08:51.199Z,1.73
2023-04-07T11:11:21.955Z,1.70
2023-04-07T11:13:51.241Z,1.70
2023-04-07T11:16:20.102Z,1.37
2023-04-07T11:18:48.280Z,1.40
2023-04-07T11:21:19.708Z,1.50
2023-04-07T11:23:48.610Z,1.40
2023-04-07T11:26:16.803Z,1.13
2023-04-07T11:28:47.623Z,1.47
2023-04-07T11:31:23.487Z,1.47
2023-04-07T11:33:55.212Z,1.63
2023-04-07T11:36:33.298Z,1.30
2023-04-07T11:39:01.754Z,1.47
2023-04-07T11:41:30.861Z,1.33
2023-04-07T11:44:05.315Z,1.00
2023-04-07T11:46:32.902Z,1.13
2023-04-07T11:49:16.128Z,1.47
2023-04-07T11:51:47.322Z,1.40
2023-04-07T11:54:16.063Z,1.37
2023-04-07T11:56:47.743Z,1.47
2023-04-07T11:59:23.254Z,1.70
2023-04-07T12:01:56.263Z,1.50
2023-04-07T12:04:25.234Z,2.03
2023-04-07T12:06:52.734Z,2.00
2023-04-07T12:09:31.038Z,1.70
2023-04-07T12:11:59.092Z,2.03
2023-04-07T12:14:30.451Z,1.70
2023-04-07T12:16:59.070Z,3.17
2023-04-07T12:19:30.731Z,3.00
2023-04-07T12:21:58.209Z,2.60
2023-04-07T12:24:25.728Z,2.27
2023-04-07T12:26:53.652Z,2.57
2023-04-07T12:29:21.328Z,2.37
2023-04-07T12:31:50.847Z,2.20
2023-04-07T12:34:18.695Z,2.23
2023-04-07T12:36:46.136Z,2.57
2023-04-07T12:39:13.822Z,2.70
2023-04-07T12:41:41.413Z,2.73
2023-04-07T12:44:09.093Z,2.30
2023-04-07T12:46:36.695Z,2.87
2023-04-07T12:49:04.152Z,2.50
2023-04-07T12:51:33.609Z,2.57
2023-04-07T12:54:01.701Z,3.07
2023-04-07T12:56:29.250Z,2.50
2023-04-07T12:58:56.687Z,2.70
2023-04-07T13:01:24.167Z,2.70
2023-04-07T13:03:51.996Z,3.03
2023-04-07T13:06:23.431Z,2.80
2023-04-07T13:08:51.970Z,2.43
2023-04-07T13:11:19.427Z,2.60
2023-04-07T13:13:47.274Z,2.10
2023-04-07T13:16:14.987Z,2.30
2023-04-07T13:18:42.684Z,2.43
2023-04-07T13:21:43.042Z,2.40
2023-04-07T13:23:58.315Z,2.23
2023-04-07T13:26:26.320Z,2.33
2023-04-07T13:28:53.878Z,2.30
2023-04-07T13:31:22.230Z,2.50
2023-04-07T13:33:50.205Z,2.40
2023-04-07T13:36:17.906Z,3.13
2023-04-07T13:38:45.406Z,2.80
2023-04-07T13:41:12.726Z,2.47
2023-04-07T13:43:40.126Z,2.50
2023-04-07T13:46:17.111Z,2.63
2023-04-07T13:48:52.458Z,2.47
2023-04-07T13:51:20.043Z,2.50
2023-04-07T13:53:48.171Z,2.43
2023-04-07T13:56:15.991Z,2.53
2023-04-07T13:58:43.455Z,2.20
2023-04-07T14:01:11.542Z,2.30
2023-04-07T14:03:39.217Z,2.50
2023-04-07T14:06:06.666Z,3.00
2023-04-07T14:08:34.210Z,2.73
2023-04-07T14:11:01.657Z,3.07
2023-04-07T14:13:29.127Z,2.00
2023-04-07T14:15:56.531Z,1.90
2023-04-07T14:18:24.721Z,1.87
2023-04-07T14:20:52.231Z,1.90
2023-04-07T14:23:33.914Z,2.80
2023-04-07T14:26:03.740Z,1.70
2023-04-07T14:28:31.794Z,1.83
2023-04-07T14:30:59.188Z,2.07
2023-04-07T14:33:26.785Z,1.30
2023-04-07T14:35:54.344Z,2.60
2023-04-07T14:38:26.090Z,1.40
2023-04-07T14:40:53.538Z,1.40
2023-04-07T14:43:21.107Z,1.60
2023-04-07T14:45:48.591Z,2.33
2023-04-07T14:48:17.229Z,1.83
2023-04-07T14:50:44.592Z,1.63
2023-04-07T14:53:12.250Z,1.50
2023-04-07T14:55:41.618Z,1.47
2023-04-07T14:58:09.048Z,1.17
2023-04-07T15:00:36.729Z,1.67
2023-04-07T15:03:04.382Z,1.53
2023-04-07T15:05:32.077Z,1.33
2023-04-07T15:07:59.666Z,1.70
2023-04-07T15:10:27.087Z,1.63
2023-04-07T15:12:54.546Z,1.53
2023-04-07T15:15:21.928Z,1.40
2023-04-07T15:17:49.530Z,1.77
2023-04-07T15:20:17.016Z,1.13
2023-04-07T15:22:44.540Z,1.10
2023-04-07T15:25:11.971Z,1.10
2023-04-07T15:27:39.507Z,1.00
2023-04-07T15:30:07.271Z,1.03
2023-04-07T15:32:34.733Z,1.30
2023-04-07T15:35:02.285Z,1.20
2023-04-07T15:37:29.678Z,1.30
2023-04-07T15:39:57.046Z,1.10
2023-04-07T15:42:24.535Z,0.90
2023-04-07T15:44:51.964Z,0.90
2023-04-07T15:47:19.452Z,1.20
2023-04-07T15:49:46.807Z,0.90
2023-04-07T15:52:14.854Z,1.20
2023-04-07T15:54:42.309Z,1.00
2023-04-07T15:57:10.006Z,1.10
2023-04-07T15:59:37.507Z,1.20
2023-04-07T16:02:05.088Z,1.07
2023-04-07T16:04:32.602Z,1.23
2023-04-07T16:07:00.131Z,1.30
2023-04-07T16:09:28.753Z,1.20
2023-04-07T16:11:56.202Z,1.40
2023-04-07T16:14:23.764Z,1.10
2023-04-07T16:16:53.952Z,1.20
2023-04-07T16:19:21.688Z,1.03
2023-04-07T16:21:49.326Z,1.10
2023-04-07T16:24:16.752Z,1.40
2023-04-07T16:26:49.894Z,1.17
2023-04-07T16:29:17.975Z,1.30
2023-04-07T16:31:45.739Z,1.50
2023-04-07T16:34:13.450Z,1.50
2023-04-07T16:36:41.213Z,1.83
2023-04-07T16:39:08.652Z,1.40
2023-04-07T16:41:36.103Z,1.27
2023-04-07T16:44:03.688Z,1.70
2023-04-07T16:46:31.661Z,1.30
2023-04-07T16:48:59.128Z,1.20
2023-04-07T16:51:28.562Z,1.30
2023-04-07T16:53:56.307Z,1.13
2023-04-07T16:56:24.376Z,1.20
2023-04-07T16:58:52.374Z,1.20
2023-04-07T17:01:19.861Z,1.43
2023-04-07T17:03:51.853Z,1.37
2023-04-07T17:06:19.568Z,1.00
2023-04-07T17:08:48.888Z,1.27
2023-04-07T17:11:16.286Z,1.10
2023-04-07T17:13:43.673Z,1.20
2023-04-07T17:16:16.142Z,1.13
2023-04-07T17:18:43.742Z,1.27
2023-04-07T17:21:11.332Z,1.10
2023-04-07T17:23:38.767Z,1.20
2023-04-07T17:26:06.307Z,1.30
2023-04-07T17:28:33.740Z,1.20
2023-04-07T17:31:02.141Z,1.30
2023-04-07T17:33:30.696Z,1.13
2023-04-07T17:35:58.144Z,1.23
2023-04-07T17:38:25.651Z,5.07
2023-04-07T17:40:57.678Z,2.43
2023-04-07T17:43:25.202Z,4.50
2023-04-07T17:45:52.712Z,2.87
2023-04-07T17:48:20.211Z,1.30
2023-04-07T17:50:48.768Z,1.20
2023-04-07T17:53:16.532Z,1.20
2023-04-07T17:55:43.883Z,1.30
2023-04-07T17:58:11.871Z,1.20
2023-04-07T18:00:39.413Z,1.30
2023-04-07T18:03:07.897Z,1.37
2023-04-07T18:05:35.666Z,1.23
2023-04-07T18:08:03.163Z,1.40
2023-04-07T18:10:30.880Z,1.17
2023-04-07T18:12:58.690Z,1.53
2023-04-07T18:15:26.687Z,2.77
2023-04-07T18:17:55.746Z,1.93
2023-04-07T18:20:23.412Z,2.20
2023-04-07T18:22:55.685Z,1.60
2023-04-07T18:25:23.307Z,1.63
2023-04-07T18:27:50.944Z,1.43
2023-04-07T18:30:18.448Z,1.40
2023-04-07T18:32:46.627Z,1.50
2023-04-07T18:35:14.126Z,1.30
2023-04-07T18:37:44.082Z,1.40
2023-04-07T18:40:12.245Z,1.60
2023-04-07T18:42:43.004Z,1.73
2023-04-07T18:45:10.630Z,1.87
2023-04-07T18:47:38.935Z,1.97
2023-04-07T18:50:06.845Z,1.80
2023-04-07T18:52:34.447Z,1.33
2023-04-07T18:55:01.953Z,1.70
2023-04-07T18:57:32.370Z,3.10
2023-04-07T18:59:59.875Z,4.60
2023-04-07T19:02:27.349Z,1.90
2023-04-07T19:04:54.891Z,1.40
2023-04-07T19:07:22.280Z,1.70
2023-04-07T19:09:53.203Z,1.57
2023-04-07T19:12:21.039Z,2.00
2023-04-07T19:14:48.540Z,1.77
2023-04-07T19:17:16.528Z,1.80
2023-04-07T19:19:43.973Z,1.60
2023-04-07T19:22:11.283Z,1.80
2023-04-07T19:24:39.684Z,1.50
2023-04-07T19:27:07.478Z,1.50
2023-04-07T19:29:35.459Z,1.60
2023-04-07T19:32:03.578Z,1.70
2023-04-07T19:34:31.434Z,2.17
2023-04-07T19:36:59.525Z,1.70
2023-04-07T19:39:27.229Z,1.50
2023-04-07T19:41:54.680Z,1.47
2023-04-07T19:44:22.390Z,1.43
2023-04-07T19:46:49.982Z,1.40
2023-04-07T19:49:17.446Z,1.30
2023-04-07T19:51:44.988Z,1.40
2023-04-07T19:54:12.654Z,1.70
2023-04-07T19:56:40.058Z,1.20
2023-04-07T19:59:08.011Z,1.30
2023-04-07T20:01:35.843Z,1.20
2023-04-07T20:04:04.023Z,1.20
2023-04-07T20:06:33.495Z,1.20
2023-04-07T20:09:01.474Z,0.90
2023-04-07T20:11:29.003Z,1.03
2023-04-07T20:13:56.445Z,1.20
2023-04-07T20:16:23.918Z,0.60
2023-04-07T20:18:52.611Z,0.60
2023-04-07T20:21:20.020Z,0.97
2023-04-07T20:23:47.469Z,0.90
2023-04-07T20:26:15.109Z,0.70
2023-04-07T20:28:42.573Z,0.90
2023-04-07T20:31:10.121Z,0.97
2023-04-07T20:33:37.601Z,1.00
2023-04-07T20:36:05.255Z,0.77
2023-04-07T20:38:33.525Z,1.53
2023-04-07T20:41:01.261Z,1.57
2023-04-07T20:43:28.817Z,1.27
2023-04-07T20:45:58.239Z,1.20
2023-04-07T20:48:25.723Z,1.50
2023-04-07T20:50:53.567Z,1.50
2023-04-07T20:53:21.610Z,1.70
2023-04-07T20:55:49.006Z,1.10
2023-04-07T20:58:17.854Z,1.00
2023-04-07T21:00:48.325Z,1.33
2023-04-07T21:03:16.109Z,1.30
2023-04-07T21:05:45.131Z,1.20
2023-04-07T21:08:14.371Z,1.03
2023-04-07T21:10:45.333Z,0.80
2023-04-07T21:13:12.756Z,0.50
2023-04-07T21:15:42.462Z,1.20
2023-04-07T21:18:10.494Z,1.00
2023-04-07T21:20:38.447Z,0.67
2023-04-07T21:23:07.922Z,0.83
2023-04-07T21:25:38.248Z,0.60
2023-04-07T21:28:05.966Z,1.30
2023-04-07T21:30:33.362Z,1.53
2023-04-07T21:33:00.738Z,1.40
2023-04-07T21:35:28.943Z,1.37
2023-04-07T21:37:56.683Z,1.37
2023-04-07T21:40:24.101Z,1.53
2023-04-07T21:42:54.853Z,1.63
2023-04-07T21:45:22.695Z,1.20
2023-04-07T21:47:50.226Z,1.20
2023-04-07T21:50:17.830Z,0.93
2023-04-07T21:52:45.487Z,1.00
2023-04-07T21:55:13.165Z,0.80
2023-04-07T21:57:43.526Z,0.90
2023-04-07T22:00:12.175Z,0.77
2023-04-07T22:02:39.738Z,0.80
2023-04-07T22:05:07.501Z,0.70
2023-04-07T22:07:34.929Z,0.70
2023-04-07T22:10:02.332Z,0.70
2023-04-07T22:12:29.862Z,0.93
2023-04-07T22:14:57.244Z,1.07
2023-04-07T22:17:24.568Z,0.80
2023-04-07T22:19:52.149Z,1.00
2023-04-07T22:22:19.490Z,0.73
2023-04-07T22:24:46.934Z,0.80
2023-04-07T22:27:14.303Z,0.90
2023-04-07T22:29:41.758Z,0.73
2023-04-07T22:32:09.211Z,1.10
2023-04-07T22:34:36.610Z,1.17
2023-04-07T22:37:04.068Z,0.97
2023-04-07T22:39:32.076Z,1.40
2023-04-07T22:41:59.400Z,1.00
2023-04-07T22:44:26.970Z,1.10
2023-04-07T22:46:54.472Z,1.10
2023-04-07T22:49:22.451Z,1.07
2023-04-07T22:51:50.775Z,0.87
2023-04-07T22:54:18.531Z,0.53
2023-04-07T22:56:46.552Z,0.80
2023-04-07T22:59:14.020Z,0.63
2023-04-07T23:01:42.636Z,0.63
2023-04-07T23:04:10.203Z,0.90
2023-04-07T23:06:37.610Z,0.77
2023-04-07T23:09:05.087Z,0.70
2023-04-07T23:11:32.491Z,0.90
2023-04-07T23:13:59.885Z,0.90
2023-04-07T23:16:27.362Z,0.73
2023-04-07T23:18:54.761Z,1.00
2023-04-07T23:21:22.204Z,1.10
2023-04-07T23:23:49.607Z,0.97
2023-04-07T23:26:17.162Z,1.00
2023-04-07T23:28:44.528Z,0.77
2023-04-07T23:31:11.922Z,0.50
2023-04-07T23:33:39.401Z,0.60
2023-04-07T23:36:07.088Z,0.60
2023-04-07T23:38:36.410Z,0.50
2023-04-07T23:41:03.761Z,0.70
2023-04-07T23:43:31.046Z,0.83
2023-04-07T23:45:58.470Z,1.03
2023-04-07T23:48:26.685Z,0.60
2023-04-07T23:50:54.175Z,0.83
2023-04-07T23:53:21.567Z,0.63
2023-04-07T23:55:50.743Z,0.57
2023-04-07T23:58:18.211Z,0.53
